Terminal Aerodrome Forecast
Issued by NWS Charleston, WV

Current Version | Previous Version | Graphics & Text | Print | Product List | Glossary On
Versions: 1 2 3 4 5 6 7 8 9 10 11 12 13 14 15 16 17 18 19 20 21 22
954
FTUS41 KRLX 211128
TAFEKN
TAF
KEKN 211128Z 2112/2212 18007KT 5SM -SHRA BR BKN020 OVC028
     FM211400 26006KT P6SM -SHRA OVC010
     FM211600 26006KT P6SM VCTS OVC015CB
     FM212000 28009KT P6SM BKN025
     FM212200 28008KT P6SM SCT035
     FM220600 29005KT 1SM BR SCT001 SCT040=

USA.gov is the U.S. government's official web portal to all federal, state and local government web resources and services.